Time;durP1;ratioP1;P1;durP2;ratioP2;P2;SDS_P1;SDS_P2;PMS_P1;PMS_P2;Temp;Humidity;BMP_temperature;BMP_pressure;BME280_temperature;BME280_humidity;BME280_pressure;Samples;Min_cycle;Max_cycle;Signal;HPM_P1;HPM_P2
2021/11/04 00:00:20;;;;;;;56.35;23.52;;;7.30;99.90;;;5.65;100.00;99913.38;2568024;30;137232;-39
2021/11/04 00:02:48;;;;;;;60.28;22.58;;;7.30;99.90;;;5.68;100.00;99912.16;2569185;30;137780;-39
2021/11/04 00:05:17;;;;;;;57.28;23.75;;;7.30;99.90;;;5.64;100.00;99908.19;2568212;30;138503;-40
2021/11/04 00:07:48;;;;;;;52.90;22.50;;;7.30;99.90;;;5.62;100.00;99913.78;2569026;30;137567;-39
2021/11/04 00:10:18;;;;;;;48.72;20.85;;;7.30;99.90;;;5.63;100.00;99911.94;2566694;30;139110;-40
2021/11/04 00:12:47;;;;;;;51.30;22.42;;;7.30;99.90;;;5.63;100.00;99910.06;2567489;30;137825;-40
2021/11/04 00:15:16;;;;;;;54.28;22.13;;;7.30;99.90;;;5.63;100.00;99907.34;2567747;30;137208;-40
2021/11/04 00:17:43;;;;;;;53.85;23.08;;;7.30;99.90;;;5.60;100.00;99913.16;2565555;30;136995;-40
2021/11/04 00:20:14;;;;;;;51.40;21.65;;;7.20;99.90;;;5.60;100.00;99913.16;2567983;30;138342;-40
2021/11/04 00:22:42;;;;;;;53.88;22.52;;;7.20;99.90;;;5.58;100.00;99902.56;2565012;30;137979;-40
2021/11/04 00:25:11;;;;;;;54.10;22.90;;;7.20;99.90;;;5.61;100.00;99904.00;2566790;30;139263;-40
2021/11/04 00:27:40;;;;;;;59.22;22.80;;;7.20;99.90;;;5.57;100.00;99903.59;2567842;30;138396;-39
2021/11/04 00:30:09;;;;;;;54.47;21.80;;;7.20;99.90;;;5.57;100.00;99905.47;2568299;30;138247;-40
2021/11/04 00:32:37;;;;;;;60.35;23.80;;;7.20;99.90;;;5.56;100.00;99904.59;2568224;30;137365;-40
2021/11/04 00:35:05;;;;;;;;;;;7.20;99.90;;;5.53;100.00;99910.44;2566780;30;138369;-39
2021/11/04 00:37:32;;;;;;;51.13;20.90;;;7.20;99.90;;;5.49;100.00;99902.94;2567594;30;137174;-40
2021/11/04 00:40:00;;;;;;;52.40;21.27;;;7.10;99.90;;;5.48;100.00;99904.78;2566919;30;137352;-39
2021/11/04 00:42:28;;;;;;;;;;;7.20;99.90;;;5.48;100.00;99896.69;2567848;30;138477;-40
2021/11/04 00:44:55;;;;;;;50.17;20.00;;;7.10;99.90;;;5.42;100.00;99894.78;2566491;30;138283;-40
2021/11/04 00:47:23;;;;;;;55.15;23.13;;;7.10;99.90;;;5.39;100.00;99892.47;2567773;30;137818;-40
2021/11/04 00:49:50;;;;;;;53.83;23.67;;;7.10;99.90;;;5.35;100.00;99881.22;2566339;30;137572;-39
2021/11/04 00:52:18;;;;;;;55.10;24.58;;;7.00;99.90;;;5.30;100.00;99876.44;2567994;30;136830;-40
2021/11/04 00:54:45;;;;;;;51.58;21.25;;;7.00;99.90;;;5.31;100.00;99888.91;2567461;30;137392;-39
2021/11/04 00:57:13;;;;;;;61.42;23.55;;;7.00;99.90;;;5.27;100.00;99890.31;2564567;30;137920;-39
2021/11/04 00:59:40;;;;;;;54.15;21.92;;;7.00;99.90;;;5.28;100.00;99892.00;2566972;30;138275;-40
2021/11/04 01:02:08;;;;;;;55.08;21.90;;;6.90;99.90;;;5.31;100.00;99894.31;2566705;30;136800;-40
2021/11/04 01:04:35;;;;;;;51.63;21.08;;;7.00;99.90;;;5.31;100.00;99902.44;2566941;30;138144;-40
2021/11/04 01:07:03;;;;;;;50.55;21.40;;;7.00;99.90;;;5.37;100.00;99897.25;2567204;30;138046;-40
2021/11/04 01:09:34;;;;;;;52.30;21.15;;;7.00;99.90;;;5.38;100.00;99909.75;2568145;30;138007;-40
2021/11/04 01:12:02;;;;;;;53.70;20.20;;;7.00;99.90;;;5.42;100.00;99906.41;2568274;30;136780;-40
2021/11/04 01:14:29;;;;;;;56.92;21.92;;;7.00;99.90;;;5.42;100.00;99905.59;2568432;30;138284;-39
2021/11/04 01:16:57;;;;;;;52.85;21.30;;;7.00;99.90;;;5.40;100.00;99894.97;2566346;30;138527;-39
2021/11/04 01:19:25;;;;;;;53.80;22.30;;;7.10;99.90;;;5.37;100.00;99895.38;2568624;30;139178;-40
2021/11/04 01:21:52;;;;;;;53.05;22.63;;;7.10;99.90;;;5.40;100.00;99902.25;2567915;30;138406;-40
2021/11/04 01:24:20;;;;;;;62.58;22.85;;;7.00;99.90;;;5.40;100.00;99894.16;2568320;30;137490;-40
2021/11/04 01:26:48;;;;;;;55.47;23.27;;;7.10;99.90;;;5.40;100.00;99896.84;2568896;30;138399;-40
2021/11/04 01:29:16;;;;;;;58.00;21.77;;;7.10;99.90;;;5.36;100.00;99887.47;2567404;30;138934;-39
2021/11/04 01:31:44;;;;;;;57.25;22.20;;;7.00;99.90;;;5.40;100.00;99891.44;2567044;30;138744;-39
2021/11/04 01:34:14;;;;;;;52.35;21.60;;;7.10;99.90;;;5.37;100.00;99900.78;2568671;30;138232;-39
2021/11/04 01:36:42;;;;;;;52.28;21.20;;;7.00;99.90;;;5.36;100.00;99904.53;2567990;30;137775;-40
2021/11/04 01:39:09;;;;;;;56.13;21.50;;;7.00;99.90;;;5.33;100.00;99905.78;2568838;30;138373;-40
2021/11/04 01:41:37;;;;;;;59.88;22.90;;;7.00;99.90;;;5.33;100.00;99915.75;2567405;30;137117;-40
2021/11/04 01:44:04;;;;;;;50.38;20.08;;;7.00;99.90;;;5.31;100.00;99921.38;2565620;30;138414;-40
2021/11/04 01:46:32;;;;;;;54.67;20.45;;;7.00;99.90;;;5.30;100.00;99922.41;2568516;30;137543;-40
2021/11/04 01:49:00;;;;;;;48.28;19.48;;;6.90;99.90;;;5.29;100.00;99920.72;2567977;30;139052;-40
2021/11/04 01:51:27;;;;;;;51.70;19.55;;;6.90;99.90;;;5.23;100.00;99910.69;2568568;30;137848;-40
2021/11/04 01:53:56;;;;;;;54.83;21.00;;;6.90;99.90;;;5.29;100.00;99917.19;2567912;30;138278;-39
2021/11/04 01:56:25;;;;;;;53.05;19.83;;;6.90;99.90;;;5.28;100.00;99910.94;2567566;30;136810;-40
2021/11/04 01:58:53;;;;;;;56.33;21.52;;;6.90;99.90;;;5.27;100.00;99914.66;2567598;30;138224;-39
2021/11/04 02:01:22;;;;;;;48.65;20.00;;;6.90;99.90;;;5.25;100.00;99915.94;2567533;30;137540;-40
2021/11/04 02:04:19;;;;;;;52.63;20.63;;;6.90;99.90;;;5.27;100.00;99924.69;2568577;30;138378;-40
2021/11/04 02:07:03;;;;;;;57.03;22.17;;;6.90;99.90;;;5.26;100.00;99931.94;2568145;30;138451;-40
2021/11/04 02:09:49;;;;;;;55.10;20.98;;;6.90;99.90;;;5.25;100.00;99935.69;2568892;30;138574;-40
2021/11/04 02:12:45;;;;;;;56.67;21.95;;;6.90;99.90;;;5.24;100.00;99934.00;2568526;30;136842;-40
2021/11/04 02:15:15;;;;;;;53.17;19.70;;;6.90;99.90;;;5.25;100.00;99927.56;2568256;30;138045;-40
2021/11/04 02:17:44;;;;;;;51.13;20.42;;;6.90;99.90;;;5.26;100.00;99923.81;2569118;30;137539;-40
2021/11/04 02:20:27;;;;;;;54.45;21.05;;;6.90;99.90;;;5.31;100.00;99917.81;2568298;30;137074;-40
2021/11/04 02:23:03;;;;;;;53.60;19.65;;;6.90;99.90;;;5.29;100.00;99914.47;2567447;30;136952;-39
2021/11/04 02:25:33;;;;;;;55.20;20.33;;;6.90;99.90;;;5.33;100.00;99904.94;2568080;30;138523;-39
2021/11/04 02:28:09;;;;;;;58.28;22.30;;;7.00;99.90;;;5.33;100.00;99894.09;2568768;30;138653;-40
2021/11/04 02:30:37;;;;;;;58.03;22.33;;;7.00;99.90;;;5.31;100.00;99891.63;2565964;30;136803;-40
2021/11/04 02:33:06;;;;;;;58.60;21.90;;;7.00;99.90;;;5.33;100.00;99884.13;2567543;30;138503;-40
2021/11/04 02:35:35;;;;;;;58.03;22.08;;;7.00;99.90;;;5.33;100.00;99880.59;2565029;30;137762;-40
2021/11/04 02:38:03;;;;;;;54.65;20.15;;;6.90;99.90;;;5.31;100.00;99885.38;2568534;30;137540;-40
2021/11/04 02:40:31;;;;;;;55.90;20.02;;;7.00;99.90;;;5.32;100.00;99892.44;2568494;30;138994;-39
2021/11/04 02:42:58;;;;;;;59.67;19.65;;;7.00;99.90;;;5.33;100.00;99894.97;2567529;30;137721;-39
2021/11/04 02:45:26;;;;;;;55.17;19.45;;;7.00;99.90;;;5.29;100.00;99895.56;2567019;30;139417;-40
2021/11/04 02:47:54;;;;;;;;;;;6.90;99.90;;;5.31;100.00;99913.25;2567425;30;137117;-40
2021/11/04 02:50:22;;;;;;;55.85;19.48;;;6.90;99.90;;;5.26;100.00;99913.00;2568112;30;137461;-40
2021/11/04 02:52:50;;;;;;;;;;;6.90;99.90;;;5.22;100.00;99922.56;2568413;30;138275;-40
2021/11/04 02:55:17;;;;;;;58.05;19.17;;;6.90;99.90;;;5.21;100.00;99917.38;2568209;30;137852;-39
2021/11/04 02:57:49;;;;;;;52.17;19.00;;;6.80;99.90;;;5.21;100.00;99925.47;2567973;30;137834;-39
2021/11/04 03:00:18;;;;;;;54.63;19.95;;;6.90;99.90;;;5.23;100.00;99929.63;2580533;30;138859;-38
2021/11/04 03:02:46;;;;;;;54.97;19.40;;;6.90;99.90;;;5.23;100.00;99935.03;2569185;30;136879;-39
2021/11/04 03:05:13;;;;;;;59.05;21.15;;;6.90;99.90;;;5.21;100.00;99939.81;2568233;30;139049;-38
2021/11/04 03:07:41;;;;;;;56.78;20.45;;;6.80;99.90;;;5.25;100.00;99941.09;2569892;30;138706;-39
2021/11/04 03:10:09;;;;;;;55.55;19.77;;;6.90;99.90;;;5.21;100.00;99945.22;2569245;30;138172;-38
2021/11/04 03:12:36;;;;;;;46.95;17.55;;;6.90;99.90;;;5.17;100.00;99952.06;2569147;30;138651;-38
2021/11/04 03:15:09;;;;;;;;;;;6.80;99.90;;;5.14;100.00;99950.59;2567085;30;137126;-38
2021/11/04 03:17:40;;;;;;;52.22;18.38;;;6.80;99.90;;;5.17;100.00;99957.47;2568724;30;137086;-38
2021/11/04 03:20:11;;;;;;;52.97;18.77;;;6.80;99.90;;;5.16;100.00;99955.81;2571530;30;139014;-38
2021/11/04 03:22:40;;;;;;;53.65;18.17;;;6.80;99.90;;;5.15;100.00;99954.13;2569602;30;136872;-38
2021/11/04 03:25:09;;;;;;;52.60;19.23;;;6.80;99.90;;;5.19;100.00;99947.28;2571514;30;138466;-38
2021/11/04 03:27:40;;;;;;;56.45;20.98;;;6.90;99.90;;;5.21;100.00;99947.13;2566504;30;137415;-38
2021/11/04 03:30:11;;;;;;;57.13;20.70;;;6.80;99.90;;;5.24;100.00;99942.13;2571221;30;138427;-38
2021/11/04 03:32:40;;;;;;;59.05;20.60;;;6.90;99.90;;;5.24;100.00;99938.59;2568208;30;138661;-38
2021/11/04 03:35:11;;;;;;;65.25;21.50;;;6.90;99.90;;;5.25;100.00;99940.28;2568037;30;138209;-38
2021/11/04 03:37:43;;;;;;;59.75;20.73;;;6.90;99.90;;;5.23;100.00;99942.34;2566312;30;138101;-38
2021/11/04 03:40:13;;;;;;;62.63;21.98;;;6.90;99.90;;;5.19;100.00;99941.88;2569960;30;137242;-38
2021/11/04 03:42:42;;;;;;;59.65;21.77;;;6.90;99.90;;;5.20;100.00;99942.75;2569460;30;136808;-38
2021/11/04 03:45:13;;;;;;;56.92;20.58;;;6.90;99.90;;;5.17;100.00;99943.97;2569161;30;137366;-38
2021/11/04 03:47:42;;;;;;;62.47;20.50;;;6.80;99.90;;;5.16;100.00;99935.00;2569860;30;137713;-38
2021/11/04 03:50:12;;;;;;;62.90;21.42;;;6.80;99.90;;;5.16;100.00;99935.00;2568127;30;139764;-38
2021/11/04 03:52:44;;;;;;;52.83;18.95;;;6.90;99.90;;;5.22;100.00;99941.50;2569130;30;137488;-38
2021/11/04 03:55:14;;;;;;;59.33;19.30;;;6.80;99.90;;;5.22;100.00;99940.66;2568866;30;137146;-38
2021/11/04 03:57:45;;;;;;;57.95;21.25;;;6.90;99.90;;;5.22;100.00;99940.66;2568803;30;136959;-38
2021/11/04 04:00:15;;;;;;;57.85;20.17;;;6.90;99.90;;;5.26;100.00;99940.06;2568921;30;137443;-38
2021/11/04 04:02:49;;;;;;;56.33;20.30;;;6.90;99.90;;;5.23;100.00;99936.94;2570361;30;137380;-38
2021/11/04 04:05:32;;;;;;;61.03;20.42;;;6.90;99.90;;;5.22;100.00;99946.91;2568897;30;137281;-38
2021/11/04 04:08:00;;;;;;;55.83;18.55;;;6.90;99.90;;;5.17;100.00;99946.66;2571928;30;137655;-39
2021/11/04 04:10:32;;;;;;;54.65;19.92;;;6.80;99.90;;;5.17;100.00;99941.25;2570697;30;137362;-38
2021/11/04 04:13:01;;;;;;;58.47;20.20;;;6.80;99.90;;;5.17;100.00;99944.81;2569449;30;136835;-38
2021/11/04 04:15:29;;;;;;;61.75;21.05;;;6.80;99.90;;;5.16;100.00;99936.88;2567566;30;137388;-38
2021/11/04 04:17:56;;;;;;;58.58;22.20;;;6.80;99.90;;;5.16;100.00;99948.50;2570017;30;138206;-38
2021/11/04 04:20:26;;;;;;;56.92;19.67;;;6.80;99.90;;;5.15;100.00;99944.13;2568924;30;137302;-38
2021/11/04 04:22:53;;;;;;;58.20;20.77;;;6.80;99.90;;;5.17;100.00;99944.81;2570426;30;136992;-38
2021/11/04 04:25:21;;;;;;;57.38;20.02;;;6.80;99.90;;;5.20;100.00;99956.25;2568879;30;137263;-38
2021/11/04 04:27:50;;;;;;;52.25;19.42;;;6.80;99.90;;;5.17;100.00;99962.88;2567845;30;138345;-38
2021/11/04 04:30:17;;;;;;;48.83;18.80;;;6.80;99.90;;;5.13;100.00;99973.25;2568200;30;138906;-38
2021/11/04 04:32:45;;;;;;;57.40;20.75;;;6.80;99.90;;;5.09;100.00;99985.50;2568253;30;137419;-38
2021/11/04 04:35:12;;;;;;;50.88;19.13;;;6.80;99.90;;;5.08;100.00;99983.84;2568613;30;137577;-38
2021/11/04 04:37:40;;;;;;;45.80;17.35;;;6.80;99.90;;;5.02;100.00;99988.16;2568537;30;137281;-38
2021/11/04 04:40:09;;;;;;;44.75;16.63;;;6.70;99.90;;;5.02;100.00;99987.31;2569730;30;138370;-38
2021/11/04 04:42:39;;;;;;;52.70;18.65;;;6.70;99.90;;;4.96;100.00;99975.41;2569691;30;136953;-38
2021/11/04 04:45:08;;;;;;;46.78;17.45;;;6.70;99.90;;;5.01;100.00;99988.38;2569291;30;137721;-38
2021/11/04 04:47:36;;;;;;;45.22;17.40;;;6.70;99.90;;;5.01;100.00;99996.47;2569285;30;138367;-38
2021/11/04 04:50:04;;;;;;;50.50;18.98;;;6.70;99.90;;;5.00;100.00;99998.31;2568658;30;138532;-38
2021/11/04 04:52:32;;;;;;;46.00;18.05;;;6.70;99.90;;;4.98;100.00;99997.69;2570064;30;137884;-38
2021/11/04 04:55:00;;;;;;;47.42;17.98;;;6.70;99.90;;;4.97;100.00;100003.31;2570929;30;138372;-38
2021/11/04 04:57:27;;;;;;;47.25;17.83;;;6.70;99.90;;;4.97;100.00;99998.72;2570132;30;137504;-38
2021/11/04 04:59:58;;;;;;;46.50;17.45;;;6.70;99.90;;;4.93;100.00;100010.97;2570015;30;136897;-38
2021/11/04 05:02:27;;;;;;;52.05;17.95;;;6.60;99.90;;;4.91;100.00;100007.63;2568481;30;137553;-38
2021/11/04 05:04:54;;;;;;;46.92;18.08;;;6.60;99.90;;;4.93;100.00;100010.97;2569517;30;136839;-38
2021/11/04 05:07:22;;;;;;;49.25;17.13;;;6.60;99.90;;;4.93;100.00;100013.66;2568774;30;138233;-38
2021/11/04 05:09:50;;;;;;;48.28;16.88;;;6.60;99.90;;;4.94;100.00;100020.75;2566669;30;138204;-38
2021/11/04 05:12:17;;;;;;;45.33;17.30;;;6.60;99.90;;;4.90;100.00;100025.69;2568975;30;136767;-38
2021/11/04 05:14:45;;;;;;;45.45;17.38;;;6.60;99.90;;;4.88;100.00;100025.06;2570201;30;139215;-38
2021/11/04 05:17:13;;;;;;;46.88;16.85;;;6.60;99.90;;;4.88;100.00;100024.22;2570935;30;137153;-38
2021/11/04 05:19:40;;;;;;;40.83;16.13;;;6.60;99.90;;;4.86;100.00;100031.69;2569888;30;139493;-38
2021/11/04 05:22:08;;;;;;;48.97;17.25;;;6.60;99.90;;;4.87;100.00;100036.91;2569047;30;137563;-38
2021/11/04 05:24:35;;;;;;;44.40;15.88;;;6.50;99.90;;;4.80;100.00;100040.59;2567580;30;139277;-38
2021/11/04 05:27:05;;;;;;;45.72;17.08;;;6.50;99.90;;;4.80;100.00;100037.88;2570638;30;137734;-38
2021/11/04 05:29:33;;;;;;;45.22;17.33;;;6.50;99.90;;;4.83;100.00;100032.91;2569328;30;138392;-38
2021/11/04 05:32:06;;;;;;;52.42;18.90;;;6.50;99.90;;;4.77;100.00;100041.81;2567231;30;137685;-38
2021/11/04 05:34:39;;;;;;;49.40;17.73;;;6.50;99.90;;;4.80;100.00;100038.72;2567765;30;139198;-38
2021/11/04 05:37:10;;;;;;;43.97;17.17;;;6.50;99.90;;;4.80;100.00;100038.72;2565593;30;137565;-38
2021/11/04 05:39:39;;;;;;;51.10;19.48;;;6.50;99.90;;;4.72;100.00;100014.53;2568671;30;137392;-38
2021/11/04 05:42:08;;;;;;;45.42;17.95;;;6.50;99.90;;;4.82;100.00;100028.53;2568368;30;138294;-38
2021/11/04 05:44:37;;;;;;;44.03;16.15;;;6.50;99.90;;;4.80;100.00;100032.47;2569028;30;139159;-39
2021/11/04 05:47:06;;;;;;;51.40;17.33;;;6.50;99.90;;;4.81;100.00;100031.44;2569410;30;137035;-38
2021/11/04 05:49:38;;;;;;;46.28;16.67;;;6.50;99.90;;;4.83;100.00;100026.69;2568117;30;137482;-38
2021/11/04 05:52:06;;;;;;;46.53;16.30;;;6.50;99.90;;;4.79;100.00;100023.53;2567612;30;137311;-38
2021/11/04 05:54:34;;;;;;;43.08;16.95;;;6.50;99.90;;;4.84;100.00;100037.28;2570024;30;138496;-38
2021/11/04 05:57:02;;;;;;;44.63;15.88;;;6.50;99.90;;;4.88;100.00;100030.47;2569809;30;137473;-38
2021/11/04 05:59:30;;;;;;;39.90;14.90;;;6.50;99.90;;;4.84;100.00;100026.47;2568599;30;138343;-38
2021/11/04 06:01:57;;;;;;;43.05;15.88;;;6.50;99.90;;;4.83;100.00;100032.91;2570661;30;137020;-38
2021/11/04 06:04:25;;;;;;;41.90;15.75;;;6.50;99.90;;;4.86;100.00;100031.69;2567715;30;137041;-38
2021/11/04 06:06:53;;;;;;;49.42;18.58;;;6.50;99.90;;;4.82;100.00;100027.72;2569864;30;136857;-38
2021/11/04 06:09:20;;;;;;;50.95;19.25;;;6.50;99.90;;;4.78;100.00;100042.66;2565927;30;138194;-38
2021/11/04 06:11:48;;;;;;;46.03;17.88;;;6.50;99.90;;;4.79;100.00;100038.94;2568467;30;137624;-38
2021/11/04 06:14:15;;;;;;;47.80;17.20;;;6.50;99.90;;;4.78;100.00;100037.25;2568743;30;138297;-38
2021/11/04 06:16:43;;;;;;;51.60;18.45;;;6.50;99.90;;;4.72;100.00;100036.97;2568039;30;137409;-38
2021/11/04 06:19:10;;;;;;;49.90;18.13;;;6.40;99.90;;;4.71;100.00;100042.59;2570858;30;138533;-38
2021/11/04 06:21:38;;;;;;;47.17;17.33;;;6.40;99.90;;;4.69;100.00;100040.06;2567858;30;136786;-38
2021/11/04 06:24:05;;;;;;;48.38;16.05;;;6.40;99.90;;;4.70;100.00;100043.63;2571597;30;138328;-38
2021/11/04 06:26:33;;;;;;;43.58;15.50;;;6.40;99.90;;;4.68;100.00;100043.78;2565593;30;137641;-38
2021/11/04 06:29:01;;;;;;;47.90;17.80;;;6.40;99.90;;;4.61;100.00;100024.00;2569233;30;137390;-38
2021/11/04 06:31:29;;;;;;;52.08;16.77;;;6.40;99.90;;;4.70;100.00;100036.31;2566454;30;138605;-38
2021/11/04 06:33:56;;;;;;;52.22;17.95;;;6.40;99.90;;;4.75;100.00;100044.69;2568220;30;139203;-38
2021/11/04 06:36:24;;;;;;;49.85;16.83;;;6.40;99.90;;;4.78;100.00;100046.19;2568913;30;138151;-38
2021/11/04 06:38:52;;;;;;;;;;;6.40;99.90;;;4.77;100.00;100040.94;2571135;30;138492;-38
2021/11/04 06:41:20;;;;;;;44.83;15.32;;;6.50;99.90;;;4.79;100.00;100047.03;2566849;30;137435;-38
2021/11/04 06:43:48;;;;;;;51.90;16.80;;;6.40;99.90;;;4.78;100.00;100038.06;2568401;30;138417;-38
2021/11/04 06:46:22;;;;;;;55.22;17.90;;;6.40;99.90;;;4.80;100.00;100043.28;2569462;30;137618;-38
2021/11/04 06:49:12;;;;;;;58.78;17.45;;;6.50;99.90;;;4.75;100.00;100047.38;2568828;30;138586;-38
2021/11/04 06:51:47;;;;;;;54.72;16.55;;;6.40;99.90;;;4.71;100.00;100042.59;2566278;30;137578;-38
2021/11/04 06:54:16;;;;;;;52.42;16.92;;;6.40;99.90;;;4.71;100.00;100040.69;2570744;30;138500;-38
2021/11/04 06:56:47;;;;;;;54.88;17.45;;;6.40;99.90;;;4.70;100.00;100039.03;2568913;30;137673;-38
2021/11/04 06:59:25;;;;;;;48.05;16.38;;;6.40;99.90;;;4.76;100.00;100042.84;2569183;30;138930;-38
2021/11/04 07:01:58;;;;;;;53.80;17.20;;;6.40;99.90;;;4.74;100.00;100053.81;2570274;30;137050;-38
2021/11/04 07:04:40;;;;;;;55.42;17.38;;;6.40;99.90;;;4.75;100.00;100050.09;2567249;30;138348;-39
2021/11/04 07:07:10;;;;;;;58.22;19.98;;;6.40;99.90;;;4.80;100.00;100051.41;2569451;30;138448;-38
2021/11/04 07:09:42;;;;;;;53.75;17.58;;;6.50;99.90;;;4.84;100.00;100060.78;2570385;30;138442;-38
2021/11/04 07:12:12;;;;;;;51.13;18.27;;;6.50;99.90;;;4.83;100.00;100054.53;2570170;30;136804;-38
2021/11/04 07:14:42;;;;;;;58.92;19.58;;;6.50;99.90;;;4.87;100.00;100068.50;2569981;30;139242;-38
2021/11/04 07:17:14;;;;;;;49.08;18.63;;;6.50;99.90;;;4.90;100.00;100063.53;2568423;30;138604;-38
2021/11/04 07:19:46;;;;;;;52.92;19.45;;;6.60;99.90;;;4.92;100.00;100068.75;2570289;30;138118;-38
2021/11/04 07:23:01;;;;;;;57.45;19.88;;;6.60;99.90;;;4.96;100.00;100071.94;2572040;30;137608;-38
2021/11/04 07:25:30;;;;;;;58.83;22.35;;;6.60;99.90;;;4.95;100.00;100060.25;2567715;30;139571;-38
2021/11/04 07:28:19;;;;;;;54.67;19.60;;;6.60;99.90;;;4.96;100.00;100072.75;2570285;30;137682;-38
2021/11/04 07:30:55;;;;;;;;;;;6.60;99.90;;;4.97;100.00;100076.31;2569144;30;138226;-38
2021/11/04 07:33:27;;;;;;;56.13;21.48;;;6.60;99.90;;;5.02;100.00;100082.78;2569444;30;137497;-38
2021/11/04 07:35:59;;;;;;;55.47;20.48;;;6.60;99.90;;;5.07;100.00;100094.91;2567059;30;138507;-38
2021/11/04 07:38:30;;;;;;;53.55;20.67;;;6.70;99.90;;;5.12;100.00;100092.44;2569580;30;138522;-38
2021/11/04 07:40:57;;;;;;;53.85;20.77;;;6.70;99.90;;;5.15;100.00;100095.59;2569951;30;139231;-38
2021/11/04 07:43:28;;;;;;;49.35;18.60;;;6.80;99.90;;;5.18;100.00;100087.09;2570060;30;136798;-38
2021/11/04 07:45:57;;;;;;;45.60;18.23;;;6.80;99.90;;;5.18;100.00;100087.09;2568205;30;140056;-38
2021/11/04 07:48:25;;;;;;;49.28;19.48;;;6.80;99.90;;;5.28;100.00;100086.75;2569086;30;137405;-38
2021/11/04 07:50:53;;;;;;;46.50;18.75;;;6.90;99.90;;;5.28;100.00;100091.34;2567592;30;138453;-38
2021/11/04 07:53:24;;;;;;;46.40;17.60;;;6.90;99.90;;;5.33;100.00;100092.44;2570469;30;137130;-38
2021/11/04 07:55:54;;;;;;;45.45;18.00;;;6.90;99.90;;;5.40;100.00;100089.75;2569207;30;139188;-38
2021/11/04 07:58:22;;;;;;;47.75;17.88;;;7.00;99.90;;;5.43;100.00;100096.66;2569047;30;137636;-38
2021/11/04 08:00:49;;;;;;;43.50;18.02;;;7.00;99.90;;;5.46;100.00;100107.94;2569245;30;137314;-38
2021/11/04 08:03:17;;;;;;;38.90;17.60;;;7.00;99.90;;;5.48;100.00;100123.94;2568797;30;137301;-39
2021/11/04 08:05:47;;;;;;;39.60;17.00;;;7.10;99.90;;;5.44;100.00;100117.25;2566976;30;139012;-38
2021/11/04 08:08:15;;;;;;;39.15;17.48;;;7.00;99.90;;;5.42;100.00;100130.16;2568492;30;139060;-38
2021/11/04 08:10:43;;;;;;;36.70;15.98;;;7.00;99.90;;;5.40;100.00;100133.03;2568435;30;139202;-38
2021/11/04 08:13:13;;;;;;;33.95;14.20;;;7.00;99.90;;;5.39;100.00;100149.47;2567932;30;137097;-38
2021/11/04 08:15:41;;;;;;;32.85;14.70;;;7.00;99.90;;;5.40;100.00;100143.84;2568362;30;137768;-38
2021/11/04 08:18:11;;;;;;;31.45;14.48;;;7.00;99.90;;;5.46;100.00;100151.22;2570502;30;136803;-38
2021/11/04 08:20:39;;;;;;;36.70;15.75;;;7.00;99.90;;;5.45;100.00;100148.69;2568521;30;138443;-38
2021/11/04 08:23:15;;;;;;;31.73;15.43;;;7.00;99.90;;;5.41;100.00;100156.34;2570731;30;137772;-38
2021/11/04 08:25:44;;;;;;;35.05;15.32;;;7.00;99.90;;;5.44;100.00;100163.25;2570445;30;139275;-38
2021/11/04 08:28:12;;;;;;;38.80;16.20;;;7.00;99.90;;;5.43;100.00;100154.28;2568243;30;138357;-38
2021/11/04 08:30:40;;;;;;;36.25;15.80;;;7.00;99.90;;;5.45;100.00;100170.34;2569624;30;138101;-38
2021/11/04 08:33:11;;;;;;;41.58;17.63;;;7.10;99.90;;;5.46;100.00;100163.91;2568724;30;137105;-37
2021/11/04 08:35:38;;;;;;;41.45;17.77;;;7.10;99.90;;;5.55;100.00;100162.72;2568387;30;138367;-38
2021/11/04 08:38:06;;;;;;;42.63;17.98;;;7.10;99.90;;;5.54;100.00;100166.44;2569320;30;137387;-39
2021/11/04 08:40:34;;;;;;;40.08;16.63;;;7.10;99.90;;;5.53;100.00;100164.78;2571198;30;137332;-39
2021/11/04 08:43:03;;;;;;;43.75;16.80;;;7.10;99.90;;;5.56;100.00;100164.38;2570118;30;137782;-38
2021/11/04 08:45:31;;;;;;;43.72;17.55;;;7.10;99.90;;;5.47;100.00;100169.13;2568785;30;138187;-38
2021/11/04 08:48:00;;;;;;;39.22;17.15;;;7.10;99.90;;;5.44;100.00;100166.81;2569467;30;139015;-38
2021/11/04 08:50:28;;;;;;;43.35;17.17;;;7.10;99.90;;;5.43;100.00;100164.28;2571114;30;138304;-38
2021/11/04 08:52:56;;;;;;;;;;;7.00;99.90;;;5.45;100.00;100171.19;2569893;30;137753;-39
2021/11/04 08:55:24;;;;;;;39.75;16.65;;;7.10;99.90;;;5.39;100.00;100174.66;2569063;30;138856;-38
2021/11/04 08:57:53;;;;;;;44.97;17.67;;;7.00;99.90;;;5.40;100.00;100167.38;2568494;30;137893;-38
2021/11/04 09:00:21;;;;;;;47.75;18.65;;;7.00;99.90;;;5.42;100.00;100178.84;2575962;30;138238;-39
2021/11/04 09:02:49;;;;;;;43.03;17.42;;;7.00;99.90;;;5.47;100.00;100185.34;2568737;30;137655;-39
2021/11/04 09:05:17;;;;;;;48.40;18.77;;;7.10;99.90;;;5.46;100.00;100188.25;2566582;30;138610;-40
2021/11/04 09:07:45;;;;;;;45.38;18.75;;;7.10;99.90;;;5.51;100.00;100198.50;2568622;30;137339;-40
2021/11/04 09:10:15;;;;;;;51.35;20.73;;;7.10;99.90;;;5.52;100.00;100195.56;2568804;30;137364;-40
2021/11/04 09:12:43;;;;;;;51.20;20.48;;;7.10;99.90;;;5.53;100.00;100197.25;2567580;30;137643;-39
2021/11/04 09:15:13;;;;;;;50.13;18.92;;;7.10;99.90;;;5.59;100.00;100196.50;2566457;30;138426;-39
2021/11/04 09:17:43;;;;;;;49.22;19.48;;;7.20;99.90;;;5.66;100.00;100191.13;2565276;30;137766;-39
2021/11/04 09:20:15;;;;;;;44.03;19.23;;;7.20;99.90;;;5.64;100.00;100189.66;2568112;30;137416;-39
2021/11/04 09:22:48;;;;;;;46.28;18.13;;;7.20;99.90;;;5.69;100.00;100195.31;2567710;30;137566;-39
2021/11/04 09:25:19;;;;;;;45.53;18.60;;;7.30;99.90;;;5.67;100.00;100195.50;2568095;30;137255;-39
2021/11/04 09:27:48;;;;;;;43.83;18.60;;;7.20;99.90;;;5.71;100.00;100215.75;2566961;30;137023;-39
2021/11/04 09:30:18;;;;;;;42.30;18.35;;;7.30;99.90;;;5.70;100.00;100224.06;2568499;30;138424;-39
2021/11/04 09:32:46;;;;;;;42.38;18.23;;;7.20;99.90;;;5.70;100.00;100208.66;2564183;30;137512;-39
2021/11/04 09:35:15;;;;;;;45.10;18.70;;;7.30;99.90;;;5.74;100.00;100192.84;2567664;30;139246;-39
2021/11/04 09:37:43;;;;;;;42.70;17.75;;;7.30;99.90;;;5.83;100.00;100188.94;2566263;30;137605;-39
2021/11/04 09:40:13;;;;;;;41.35;17.58;;;7.40;99.90;;;5.86;100.00;100201.28;2567110;30;137815;-39
2021/11/04 09:42:40;;;;;;;39.38;17.58;;;7.40;99.90;;;5.81;100.00;100212.69;2566850;30;137675;-39
2021/11/04 09:45:08;;;;;;;35.13;15.98;;;7.40;99.90;;;5.80;100.00;100205.59;2567817;30;138350;-39
2021/11/04 09:47:37;;;;;;;44.60;17.73;;;7.40;99.90;;;5.85;100.00;100214.00;2567651;30;138296;-39
2021/11/04 09:50:12;;;;;;;43.13;18.00;;;7.40;99.90;;;5.99;100.00;100214.94;2567895;30;138533;-39
2021/11/04 09:52:43;;;;;;;47.25;20.13;;;7.50;99.90;;;6.03;100.00;100220.78;2567477;30;138646;-39
2021/11/04 09:55:18;;;;;;;57.28;20.17;;;7.60;99.90;;;6.10;100.00;100219.00;2566449;30;138546;-40
2021/11/04 09:57:52;;;;;;;44.38;19.02;;;7.60;99.90;;;6.24;100.00;100229.91;2568918;30;137523;-39
2021/11/04 10:00:30;;;;;;;47.65;20.65;;;7.70;99.90;;;6.32;100.00;100221.59;2566993;30;137705;-40
2021/11/04 10:03:05;;;;;;;43.85;19.63;;;7.80;99.90;;;6.45;100.00;100227.13;2567968;30;138485;-39
2021/11/04 10:05:53;;;;;;;43.50;19.55;;;7.90;99.90;;;6.54;100.00;100235.06;2566758;30;138959;-39
2021/11/04 10:08:38;;;;;;;41.30;18.55;;;8.00;99.90;;;6.65;100.00;100242.66;2565619;30;137663;-40
2021/11/04 10:11:14;;;;;;;39.85;17.90;;;8.10;99.90;;;6.68;100.00;100239.53;2565960;30;138172;-39
2021/11/04 10:13:44;;;;;;;45.67;20.00;;;8.10;99.90;;;6.77;100.00;100251.06;2567296;30;137674;-40
2021/11/04 10:16:13;;;;;;;42.60;18.83;;;8.20;99.90;;;6.88;100.00;100247.75;2568622;30;137425;-40